Weather at Fly Sin City #2 Heliport

Public forecast

Using degrees Fahrenheit for public forecast. Weather courtesy of forecast.io.

Closest aviation weather report (METAR) to Fly Sin City #2 Heliport

Closest report is Henderson Executive Airport, 21.8 nm (40.3 km) ENE. Retrieved 2021/06/23 01:56 UTC (38 minutes ago):

KHND 230156Z 20015G23KT 10SM CLR 37/02 A2985 RMK AO2 SLP088 T03670022

Closest aviation forecast (TAF) to Fly Sin City #2 Heliport

Closest forecast is Henderson Executive Airport, 21.8 nm (40.3 km) ENE. Retrieved 2021-06-23 00:22 UTC (2 hours ago):

TAF KHND 222320Z 2300/2324 23017G26KT P6SM SCT150 BKN250 FM230300 23014G22KT P6SM BKN150 BKN200 FM230800 21010KT P6SM BKN120 BKN180 FM231200 18010KT P6SM VCSH SCT080 BKN100 FM232100 17010KT P6SM VCTS SCT080CB BKN100 PROB30 2321/2324 TS BKN080CB